sensor_id;sensor_type;location;lat;lon;timestamp;temperature;humidity
15815;DHT22;8008;50.024;8.172;2022-09-27T03:02:34;10.70;99.90
15815;DHT22;8008;50.024;8.172;2022-09-27T03:05:31;10.70;99.90
15815;DHT22;8008;50.024;8.172;2022-09-27T03:08:00;10.60;99.90
15815;DHT22;8008;50.024;8.172;2022-09-27T03:10:30;10.70;99.90
15815;DHT22;8008;50.024;8.172;2022-09-27T03:12:58;10.70;99.90
15815;DHT22;8008;50.024;8.172;2022-09-27T03:15:28;10.70;99.90
15815;DHT22;8008;50.024;8.172;2022-09-27T03:17:59;10.70;99.90
15815;DHT22;8008;50.024;8.172;2022-09-27T03:20:45;10.60;99.90
15815;DHT22;8008;50.024;8.172;2022-09-27T03:23:15;10.60;99.90
15815;DHT22;8008;50.024;8.172;2022-09-27T03:25:43;10.60;99.90
15815;DHT22;8008;50.024;8.172;2022-09-27T03:28:12;10.70;99.90
15815;DHT22;8008;50.024;8.172;2022-09-27T03:30:41;10.70;99.90
15815;DHT22;8008;50.024;8.172;2022-09-27T03:33:15;10.60;99.90
15815;DHT22;8008;50.024;8.172;2022-09-27T03:35:43;10.50;99.90
15815;DHT22;8008;50.024;8.172;2022-09-27T03:38:12;10.40;99.90
15815;DHT22;8008;50.024;8.172;2022-09-27T03:40:40;10.40;99.90
15815;DHT22;8008;50.024;8.172;2022-09-27T03:43:09;10.30;99.90
15815;DHT22;8008;50.024;8.172;2022-09-27T03:45:37;10.20;99.90
15815;DHT22;8008;50.024;8.172;2022-09-27T03:48:08;10.20;99.90
15815;DHT22;8008;50.024;8.172;2022-09-27T03:50:37;10.20;99.90
15815;DHT22;8008;50.024;8.172;2022-09-27T03:53:05;10.20;99.90
15815;DHT22;8008;50.024;8.172;2022-09-27T03:55:33;10.10;99.90
15815;DHT22;8008;50.024;8.172;2022-09-27T03:58:01;10.20;99.90
15815;DHT22;8008;50.024;8.172;2022-09-27T04:00:30;10.10;99.90
15815;DHT22;8008;50.024;8.172;2022-09-27T04:02:59;10.10;99.90
15815;DHT22;8008;50.024;8.172;2022-09-27T04:05:28;10.10;99.90
15815;DHT22;8008;50.024;8.172;2022-09-27T04:08:04;10.00;99.90
15815;DHT22;8008;50.024;8.172;2022-09-27T04:10:33;10.00;99.90
15815;DHT22;8008;50.024;8.172;2022-09-27T04:13:02;10.00;99.90
15815;DHT22;8008;50.024;8.172;2022-09-27T04:15:35;10.00;99.90
15815;DHT22;8008;50.024;8.172;2022-09-27T04:18:23;10.00;99.90
15815;DHT22;8008;50.024;8.172;2022-09-27T04:21:06;10.00;99.90
15815;DHT22;8008;50.024;8.172;2022-09-27T04:23:41;10.00;99.90
15815;DHT22;8008;50.024;8.172;2022-09-27T04:26:12;10.00;99.90
15815;DHT22;8008;50.024;8.172;2022-09-27T04:29:01;10.00;99.90
15815;DHT22;8008;50.024;8.172;2022-09-27T04:31:31;10.00;99.90
15815;DHT22;8008;50.024;8.172;2022-09-27T04:34:10;10.00;99.90
15815;DHT22;8008;50.024;8.172;2022-09-27T04:36:38;10.00;99.90
15815;DHT22;8008;50.024;8.172;2022-09-27T04:39:09;10.00;99.90
15815;DHT22;8008;50.024;8.172;2022-09-27T04:41:42;10.00;99.90
15815;DHT22;8008;50.024;8.172;2022-09-27T04:44:11;10.00;99.90
15815;DHT22;8008;50.024;8.172;2022-09-27T04:46:43;10.00;99.90
15815;DHT22;8008;50.024;8.172;2022-09-27T04:49:11;10.00;99.90
15815;DHT22;8008;50.024;8.172;2022-09-27T04:51:39;10.00;99.90
15815;DHT22;8008;50.024;8.172;2022-09-27T04:54:09;10.00;99.90
15815;DHT22;8008;50.024;8.172;2022-09-27T04:56:46;9.90;99.90
15815;DHT22;8008;50.024;8.172;2022-09-27T04:59:15;9.90;99.90
15815;DHT22;8008;50.024;8.172;2022-09-27T05:01:43;9.90;99.90
15815;DHT22;8008;50.024;8.172;2022-09-27T05:04:27;9.90;99.90
15815;DHT22;8008;50.024;8.172;2022-09-27T05:06:55;9.80;99.90
15815;DHT22;8008;50.024;8.172;2022-09-27T05:09:35;9.80;99.90
15815;DHT22;8008;50.024;8.172;2022-09-27T05:12:03;9.80;99.90
15815;DHT22;8008;50.024;8.172;2022-09-27T05:14:55;9.90;99.90
15815;DHT22;8008;50.024;8.172;2022-09-27T05:17:50;9.90;99.90
15815;DHT22;8008;50.024;8.172;2022-09-27T05:20:36;9.90;99.90
15815;DHT22;8008;50.024;8.172;2022-09-27T05:23:23;9.90;99.90
15815;DHT22;8008;50.024;8.172;2022-09-27T05:25:53;9.90;99.90
15815;DHT22;8008;50.024;8.172;2022-09-27T05:28:22;9.90;99.90
15815;DHT22;8008;50.024;8.172;2022-09-27T05:30:50;9.90;99.90
15815;DHT22;8008;50.024;8.172;2022-09-27T05:33:20;9.90;99.90
15815;DHT22;8008;50.024;8.172;2022-09-27T05:35:51;9.90;99.90
15815;DHT22;8008;50.024;8.172;2022-09-27T05:38:23;10.00;99.90
15815;DHT22;8008;50.024;8.172;2022-09-27T05:40:56;10.00;99.90
15815;DHT22;8008;50.024;8.172;2022-09-27T05:43:24;10.00;99.90
15815;DHT22;8008;50.024;8.172;2022-09-27T05:45:55;10.00;99.90
15815;DHT22;8008;50.024;8.172;2022-09-27T05:48:24;10.10;99.90
15815;DHT22;8008;50.024;8.172;2022-09-27T05:51:03;10.10;99.90
15815;DHT22;8008;50.024;8.172;2022-09-27T05:53:33;10.10;99.90
15815;DHT22;8008;50.024;8.172;2022-09-27T05:56:06;10.10;99.90
15815;DHT22;8008;50.024;8.172;2022-09-27T05:58:52;10.20;99.90
15815;DHT22;8008;50.024;8.172;2022-09-27T06:01:21;10.20;99.90
15815;DHT22;8008;50.024;8.172;2022-09-27T06:04:28;10.20;99.90
15815;DHT22;8008;50.024;8.172;2022-09-27T06:07:18;10.20;99.90
15815;DHT22;8008;50.024;8.172;2022-09-27T06:09:46;10.20;99.90
15815;DHT22;8008;50.024;8.172;2022-09-27T06:12:16;10.20;99.90
15815;DHT22;8008;50.024;8.172;2022-09-27T06:14:46;10.20;99.90
15815;DHT22;8008;50.024;8.172;2022-09-27T06:17:26;10.20;99.90
15815;DHT22;8008;50.024;8.172;2022-09-27T06:19:54;10.30;99.90
15815;DHT22;8008;50.024;8.172;2022-09-27T06:22:22;10.30;99.90
15815;DHT22;8008;50.024;8.172;2022-09-27T06:24:57;10.30;99.90
15815;DHT22;8008;50.024;8.172;2022-09-27T06:27:31;10.30;99.90
15815;DHT22;8008;50.024;8.172;2022-09-27T06:30:05;10.30;99.90
15815;DHT22;8008;50.024;8.172;2022-09-27T06:32:45;10.40;99.90
15815;DHT22;8008;50.024;8.172;2022-09-27T06:35:20;10.50;99.90
15815;DHT22;8008;50.024;8.172;2022-09-27T06:37:51;10.50;99.90
15815;DHT22;8008;50.024;8.172;2022-09-27T06:40:20;10.50;99.90
15815;DHT22;8008;50.024;8.172;2022-09-27T06:43:09;10.50;99.90
15815;DHT22;8008;50.024;8.172;2022-09-27T06:45:58;10.50;99.90
15815;DHT22;8008;50.024;8.172;2022-09-27T06:48:45;10.50;99.90
15815;DHT22;8008;50.024;8.172;2022-09-27T06:51:15;10.50;99.90
15815;DHT22;8008;50.024;8.172;2022-09-27T06:53:42;10.50;99.90
15815;DHT22;8008;50.024;8.172;2022-09-27T06:56:11;10.50;99.90
15815;DHT22;8008;50.024;8.172;2022-09-27T06:58:51;10.50;99.90
15815;DHT22;8008;50.024;8.172;2022-09-27T07:01:43;10.50;99.90
15815;DHT22;8008;50.024;8.172;2022-09-27T07:04:30;10.50;99.90
15815;DHT22;8008;50.024;8.172;2022-09-27T07:07:26;10.50;99.90
15815;DHT22;8008;50.024;8.172;2022-09-27T07:09:55;10.60;99.90
15815;DHT22;8008;50.024;8.172;2022-09-27T07:12:25;10.60;99.90
15815;DHT22;8008;50.024;8.172;2022-09-27T07:14:55;10.60;99.90
15815;DHT22;8008;50.024;8.172;2022-09-27T07:17:23;10.50;99.90
15815;DHT22;8008;50.024;8.172;2022-09-27T07:19:53;10.60;99.90
15815;DHT22;8008;50.024;8.172;2022-09-27T07:22:21;10.60;99.90
15815;DHT22;8008;50.024;8.172;2022-09-27T07:24:57;10.60;99.90
15815;DHT22;8008;50.024;8.172;2022-09-27T07:27:24;10.60;99.90
15815;DHT22;8008;50.024;8.172;2022-09-27T07:29:55;10.60;99.90
15815;DHT22;8008;50.024;8.172;2022-09-27T07:32:24;10.60;99.90
15815;DHT22;8008;50.024;8.172;2022-09-27T07:34:52;10.60;99.90
15815;DHT22;8008;50.024;8.172;2022-09-27T07:37:21;10.60;99.90
15815;DHT22;8008;50.024;8.172;2022-09-27T07:39:49;10.60;99.90
15815;DHT22;8008;50.024;8.172;2022-09-27T07:42:17;10.60;99.90
15815;DHT22;8008;50.024;8.172;2022-09-27T07:44:49;10.60;99.90
15815;DHT22;8008;50.024;8.172;2022-09-27T07:47:30;10.60;99.90
15815;DHT22;8008;50.024;8.172;2022-09-27T07:50:09;10.60;99.90
15815;DHT22;8008;50.024;8.172;2022-09-27T07:52:44;10.60;99.90
15815;DHT22;8008;50.024;8.172;2022-09-27T07:55:26;10.60;99.90
15815;DHT22;8008;50.024;8.172;2022-09-27T07:58:05;10.60;99.90
15815;DHT22;8008;50.024;8.172;2022-09-27T08:00:35;10.70;99.90
15815;DHT22;8008;50.024;8.172;2022-09-27T08:03:06;10.70;99.90
15815;DHT22;8008;50.024;8.172;2022-09-27T08:05:36;10.70;99.90
15815;DHT22;8008;50.024;8.172;2022-09-27T08:08:04;10.80;99.90
15815;DHT22;8008;50.024;8.172;2022-09-27T08:10:33;10.90;99.90
15815;DHT22;8008;50.024;8.172;2022-09-27T08:13:03;11.00;99.90
15815;DHT22;8008;50.024;8.172;2022-09-27T08:15:33;10.90;99.90
15815;DHT22;8008;50.024;8.172;2022-09-27T08:18:02;11.00;99.90
15815;DHT22;8008;50.024;8.172;2022-09-27T08:20:59;11.00;99.90
15815;DHT22;8008;50.024;8.172;2022-09-27T08:23:27;11.00;99.90
15815;DHT22;8008;50.024;8.172;2022-09-27T08:26:18;11.10;99.90
15815;DHT22;8008;50.024;8.172;2022-09-27T08:29:09;11.20;99.90
15815;DHT22;8008;50.024;8.172;2022-09-27T08:31:42;11.30;99.90
15815;DHT22;8008;50.024;8.172;2022-09-27T08:34:10;11.50;99.90
15815;DHT22;8008;50.024;8.172;2022-09-27T08:36:41;11.70;99.90
15815;DHT22;8008;50.024;8.172;2022-09-27T08:39:10;12.00;99.90
15815;DHT22;8008;50.024;8.172;2022-09-27T08:41:50;12.20;99.90
15815;DHT22;8008;50.024;8.172;2022-09-27T08:44:26;12.40;99.90
15815;DHT22;8008;50.024;8.172;2022-09-27T08:47:13;12.50;99.90
15815;DHT22;8008;50.024;8.172;2022-09-27T08:49:46;12.60;99.90
15815;DHT22;8008;50.024;8.172;2022-09-27T08:52:20;12.70;99.90
15815;DHT22;8008;50.024;8.172;2022-09-27T08:54:50;12.60;99.90
15815;DHT22;8008;50.024;8.172;2022-09-27T08:57:19;12.70;99.90
15815;DHT22;8008;50.024;8.172;2022-09-27T09:00:01;12.60;99.90
15815;DHT22;8008;50.024;8.172;2022-09-27T09:02:30;12.60;99.90
15815;DHT22;8008;50.024;8.172;2022-09-27T09:05:02;12.60;99.90
15815;DHT22;8008;50.024;8.172;2022-09-27T09:07:51;12.50;99.90
15815;DHT22;8008;50.024;8.172;2022-09-27T09:10:33;12.40;99.90
15815;DHT22;8008;50.024;8.172;2022-09-27T09:13:36;12.50;99.90
15815;DHT22;8008;50.024;8.172;2022-09-27T09:16:12;12.50;99.90
15815;DHT22;8008;50.024;8.172;2022-09-27T09:19:01;12.50;99.90
15815;DHT22;8008;50.024;8.172;2022-09-27T09:21:45;12.60;99.90
15815;DHT22;8008;50.024;8.172;2022-09-27T09:24:23;12.70;99.90
15815;DHT22;8008;50.024;8.172;2022-09-27T09:26:58;12.80;99.90
15815;DHT22;8008;50.024;8.172;2022-09-27T09:29:38;12.70;99.90
15815;DHT22;8008;50.024;8.172;2022-09-27T09:32:21;12.70;99.90
15815;DHT22;8008;50.024;8.172;2022-09-27T09:34:57;12.70;99.90
15815;DHT22;8008;50.024;8.172;2022-09-27T09:37:34;12.60;99.90
15815;DHT22;8008;50.024;8.172;2022-09-27T09:40:12;12.60;99.90
15815;DHT22;8008;50.024;8.172;2022-09-27T09:42:47;12.80;99.90
15815;DHT22;8008;50.024;8.172;2022-09-27T09:45:20;13.00;99.90
15815;DHT22;8008;50.024;8.172;2022-09-27T09:47:53;13.00;99.90
15815;DHT22;8008;50.024;8.172;2022-09-27T09:50:26;13.00;99.90
15815;DHT22;8008;50.024;8.172;2022-09-27T09:53:01;13.10;99.90
15815;DHT22;8008;50.024;8.172;2022-09-27T09:55:34;13.10;99.90
15815;DHT22;8008;50.024;8.172;2022-09-27T09:58:10;13.20;99.90
15815;DHT22;8008;50.024;8.172;2022-09-27T10:00:50;13.20;99.90
15815;DHT22;8008;50.024;8.172;2022-09-27T10:03:20;13.20;99.90
15815;DHT22;8008;50.024;8.172;2022-09-27T10:05:50;13.20;99.90
15815;DHT22;8008;50.024;8.172;2022-09-27T10:08:20;13.10;99.90
15815;DHT22;8008;50.024;8.172;2022-09-27T10:10:59;13.20;99.90
15815;DHT22;8008;50.024;8.172;2022-09-27T10:13:46;13.30;99.90
15815;DHT22;8008;50.024;8.172;2022-09-27T10:16:17;13.50;99.90
15815;DHT22;8008;50.024;8.172;2022-09-27T10:18:46;13.70;99.90
15815;DHT22;8008;50.024;8.172;2022-09-27T10:21:19;13.80;99.90
15815;DHT22;8008;50.024;8.172;2022-09-27T10:24:03;13.90;99.90
15815;DHT22;8008;50.024;8.172;2022-09-27T10:26:57;14.00;99.90
15815;DHT22;8008;50.024;8.172;2022-09-27T10:29:29;13.90;99.90
15815;DHT22;8008;50.024;8.172;2022-09-27T10:32:05;13.80;99.90
15815;DHT22;8008;50.024;8.172;2022-09-27T10:34:45;13.80;99.90
15815;DHT22;8008;50.024;8.172;2022-09-27T10:37:16;13.80;99.90
15815;DHT22;8008;50.024;8.172;2022-09-27T10:39:57;13.90;99.90
15815;DHT22;8008;50.024;8.172;2022-09-27T10:42:35;14.00;99.90
15815;DHT22;8008;50.024;8.172;2022-09-27T10:45:26;14.00;99.90
15815;DHT22;8008;50.024;8.172;2022-09-27T10:48:03;14.10;99.90
15815;DHT22;8008;50.024;8.172;2022-09-27T10:50:55;14.10;99.90
15815;DHT22;8008;50.024;8.172;2022-09-27T10:53:51;14.00;99.90
15815;DHT22;8008;50.024;8.172;2022-09-27T10:56:29;13.90;99.90
15815;DHT22;8008;50.024;8.172;2022-09-27T10:58:59;13.80;99.90
15815;DHT22;8008;50.024;8.172;2022-09-27T11:01:40;13.70;99.90
15815;DHT22;8008;50.024;8.172;2022-09-27T11:04:25;13.60;99.90
15815;DHT22;8008;50.024;8.172;2022-09-27T11:07:12;13.50;99.90
15815;DHT22;8008;50.024;8.172;2022-09-27T11:09:47;13.60;99.90
15815;DHT22;8008;50.024;8.172;2022-09-27T11:12:16;13.50;99.90
15815;DHT22;8008;50.024;8.172;2022-09-27T11:14:58;13.40;99.90
15815;DHT22;8008;50.024;8.172;2022-09-27T11:17:33;13.50;99.90
15815;DHT22;8008;50.024;8.172;2022-09-27T11:20:18;13.60;99.90
15815;DHT22;8008;50.024;8.172;2022-09-27T11:23:03;13.60;99.90
15815;DHT22;8008;50.024;8.172;2022-09-27T11:25:40;13.60;99.90
15815;DHT22;8008;50.024;8.172;2022-09-27T11:28:17;13.60;99.90
15815;DHT22;8008;50.024;8.172;2022-09-27T11:30:54;13.50;99.90
15815;DHT22;8008;50.024;8.172;2022-09-27T11:33:45;13.40;99.90
15815;DHT22;8008;50.024;8.172;2022-09-27T11:36:26;13.50;99.90
15815;DHT22;8008;50.024;8.172;2022-09-27T11:39:05;13.60;99.90
15815;DHT22;8008;50.024;8.172;2022-09-27T11:41:48;13.70;99.90
15815;DHT22;8008;50.024;8.172;2022-09-27T11:44:46;13.80;99.90
15815;DHT22;8008;50.024;8.172;2022-09-27T11:47:38;13.90;99.90
15815;DHT22;8008;50.024;8.172;2022-09-27T11:50:26;13.80;99.90
15815;DHT22;8008;50.024;8.172;2022-09-27T11:53:09;13.70;99.90
15815;DHT22;8008;50.024;8.172;2022-09-27T11:55:46;13.70;99.90
15815;DHT22;8008;50.024;8.172;2022-09-27T11:58:24;13.80;99.90
15815;DHT22;8008;50.024;8.172;2022-09-27T12:01:06;13.90;99.90
15815;DHT22;8008;50.024;8.172;2022-09-27T12:03:56;14.00;99.90
15815;DHT22;8008;50.024;8.172;2022-09-27T12:06:34;14.10;99.90
15815;DHT22;8008;50.024;8.172;2022-09-27T12:09:06;14.00;99.90
15815;DHT22;8008;50.024;8.172;2022-09-27T12:11:41;13.80;99.90
15815;DHT22;8008;50.024;8.172;2022-09-27T12:14:17;14.00;99.90
15815;DHT22;8008;50.024;8.172;2022-09-27T12:16:55;13.90;99.90
15815;DHT22;8008;50.024;8.172;2022-09-27T12:19:28;14.00;99.90
15815;DHT22;8008;50.024;8.172;2022-09-27T12:22:03;14.00;99.90
15815;DHT22;8008;50.024;8.172;2022-09-27T12:24:38;14.10;99.90
15815;DHT22;8008;50.024;8.172;2022-09-27T12:27:20;14.10;99.90
15815;DHT22;8008;50.024;8.172;2022-09-27T12:29:53;14.10;99.90
15815;DHT22;8008;50.024;8.172;2022-09-27T12:32:24;14.10;99.90
15815;DHT22;8008;50.024;8.172;2022-09-27T12:34:59;13.90;99.90
15815;DHT22;8008;50.024;8.172;2022-09-27T12:37:33;13.90;99.90
15815;DHT22;8008;50.024;8.172;2022-09-27T12:40:12;14.00;99.90
15815;DHT22;8008;50.024;8.172;2022-09-27T12:42:46;14.00;99.90
15815;DHT22;8008;50.024;8.172;2022-09-27T12:45:32;14.00;99.90
15815;DHT22;8008;50.024;8.172;2022-09-27T12:48:07;14.00;99.90
15815;DHT22;8008;50.024;8.172;2022-09-27T12:50:42;14.20;99.90
15815;DHT22;8008;50.024;8.172;2022-09-27T12:53:14;14.10;99.90
15815;DHT22;8008;50.024;8.172;2022-09-27T12:56:05;14.00;99.90
15815;DHT22;8008;50.024;8.172;2022-09-27T13:02:20;13.60;99.90
15815;DHT22;8008;50.024;8.172;2022-09-27T13:05:06;13.60;99.90
15815;DHT22;8008;50.024;8.172;2022-09-27T13:07:48;13.50;99.90
15815;DHT22;8008;50.024;8.172;2022-09-27T13:10:39;13.40;99.90
15815;DHT22;8008;50.024;8.172;2022-09-27T13:13:22;13.40;99.90
15815;DHT22;8008;50.024;8.172;2022-09-27T13:15:56;13.00;99.90
15815;DHT22;8008;50.024;8.172;2022-09-27T13:18:31;12.90;99.90
15815;DHT22;8008;50.024;8.172;2022-09-27T13:21:02;12.80;99.90
15815;DHT22;8008;50.024;8.172;2022-09-27T13:23:57;12.80;99.90
15815;DHT22;8008;50.024;8.172;2022-09-27T13:26:48;12.80;99.90
15815;DHT22;8008;50.024;8.172;2022-09-27T13:29:26;12.90;99.90
15815;DHT22;8008;50.024;8.172;2022-09-27T13:32:19;13.00;99.90
15815;DHT22;8008;50.024;8.172;2022-09-27T13:35:20;13.10;99.90
15815;DHT22;8008;50.024;8.172;2022-09-27T13:37:55;13.30;99.90
15815;DHT22;8008;50.024;8.172;2022-09-27T13:40:34;13.30;99.90
15815;DHT22;8008;50.024;8.172;2022-09-27T13:43:37;13.40;99.90
15815;DHT22;8008;50.024;8.172;2022-09-27T13:46:22;13.60;99.90
15815;DHT22;8008;50.024;8.172;2022-09-27T13:48:54;13.60;99.90
15815;DHT22;8008;50.024;8.172;2022-09-27T13:51:34;13.80;99.90
15815;DHT22;8008;50.024;8.172;2022-09-27T13:54:05;13.80;99.90
15815;DHT22;8008;50.024;8.172;2022-09-27T13:56:51;14.10;99.90
15815;DHT22;8008;50.024;8.172;2022-09-27T13:59:25;14.20;99.90
15815;DHT22;8008;50.024;8.172;2022-09-27T14:02:25;14.60;99.90
15815;DHT22;8008;50.024;8.172;2022-09-27T14:04:55;15.30;99.90
15815;DHT22;8008;50.024;8.172;2022-09-27T14:07:26;15.70;99.90
15815;DHT22;8008;50.024;8.172;2022-09-27T14:10:00;16.30;99.90
15815;DHT22;8008;50.024;8.172;2022-09-27T14:12:37;16.80;99.90
15815;DHT22;8008;50.024;8.172;2022-09-27T14:15:17;17.20;99.90
15815;DHT22;8008;50.024;8.172;2022-09-27T14:17:46;18.30;99.90
15815;DHT22;8008;50.024;8.172;2022-09-27T14:20:34;18.10;99.90
15815;DHT22;8008;50.024;8.172;2022-09-27T14:23:04;17.10;99.90
15815;DHT22;8008;50.024;8.172;2022-09-27T14:25:37;17.60;99.90
15815;DHT22;8008;50.024;8.172;2022-09-27T14:28:20;17.80;99.90
15815;DHT22;8008;50.024;8.172;2022-09-27T14:31:13;17.60;99.90
15815;DHT22;8008;50.024;8.172;2022-09-27T14:34:12;16.80;99.90
15815;DHT22;8008;50.024;8.172;2022-09-27T14:36:48;16.20;99.90
15815;DHT22;8008;50.024;8.172;2022-09-27T14:39:44;15.50;99.90
15815;DHT22;8008;50.024;8.172;2022-09-27T14:42:29;14.90;99.90
15815;DHT22;8008;50.024;8.172;2022-09-27T14:45:21;14.50;99.90
15815;DHT22;8008;50.024;8.172;2022-09-27T14:47:51;14.30;99.90
15815;DHT22;8008;50.024;8.172;2022-09-27T14:50:23;14.00;99.90
15815;DHT22;8008;50.024;8.172;2022-09-27T14:52:53;13.80;99.90
15815;DHT22;8008;50.024;8.172;2022-09-27T14:55:25;13.60;99.90
15815;DHT22;8008;50.024;8.172;2022-09-27T14:57:55;13.50;99.90
15815;DHT22;8008;50.024;8.172;2022-09-27T15:00:27;13.50;99.90
15815;DHT22;8008;50.024;8.172;2022-09-27T15:02:58;13.40;99.90
15815;DHT22;8008;50.024;8.172;2022-09-27T15:05:31;13.40;99.90
15815;DHT22;8008;50.024;8.172;2022-09-27T15:08:02;13.60;99.90
15815;DHT22;8008;50.024;8.172;2022-09-27T15:10:33;13.60;99.90
15815;DHT22;8008;50.024;8.172;2022-09-27T15:13:03;13.50;99.90
15815;DHT22;8008;50.024;8.172;2022-09-27T15:15:35;13.40;99.90
15815;DHT22;8008;50.024;8.172;2022-09-27T15:18:30;13.40;99.90
15815;DHT22;8008;50.024;8.172;2022-09-27T15:20:59;13.40;99.90
15815;DHT22;8008;50.024;8.172;2022-09-27T15:23:28;13.40;99.90
15815;DHT22;8008;50.024;8.172;2022-09-27T15:25:59;13.30;99.90
15815;DHT22;8008;50.024;8.172;2022-09-27T15:28:29;13.20;99.90
15815;DHT22;8008;50.024;8.172;2022-09-27T15:30:59;13.30;99.90
15815;DHT22;8008;50.024;8.172;2022-09-27T15:33:28;13.40;99.90
15815;DHT22;8008;50.024;8.172;2022-09-27T15:36:00;13.20;99.90
15815;DHT22;8008;50.024;8.172;2022-09-27T15:38:30;13.10;99.90
15815;DHT22;8008;50.024;8.172;2022-09-27T15:41:02;13.20;99.90
15815;DHT22;8008;50.024;8.172;2022-09-27T15:43:33;13.10;99.90
15815;DHT22;8008;50.024;8.172;2022-09-27T15:46:07;13.00;99.90
15815;DHT22;8008;50.024;8.172;2022-09-27T15:49:22;13.00;99.90
15815;DHT22;8008;50.024;8.172;2022-09-27T15:51:54;12.90;99.90
15815;DHT22;8008;50.024;8.172;2022-09-27T15:54:23;12.80;99.90
15815;DHT22;8008;50.024;8.172;2022-09-27T15:56:53;12.80;99.90
15815;DHT22;8008;50.024;8.172;2022-09-27T15:59:24;12.90;99.90
15815;DHT22;8008;50.024;8.172;2022-09-27T16:01:56;12.80;99.90
15815;DHT22;8008;50.024;8.172;2022-09-27T16:04:24;12.60;99.90
15815;DHT22;8008;50.024;8.172;2022-09-27T16:06:53;12.60;99.90
15815;DHT22;8008;50.024;8.172;2022-09-27T16:09:21;12.50;99.90
15815;DHT22;8008;50.024;8.172;2022-09-27T16:11:49;12.50;99.90
15815;DHT22;8008;50.024;8.172;2022-09-27T16:14:17;12.60;99.90
15815;DHT22;8008;50.024;8.172;2022-09-27T16:16:48;12.70;99.90
15815;DHT22;8008;50.024;8.172;2022-09-27T16:19:17;12.70;99.90
15815;DHT22;8008;50.024;8.172;2022-09-27T16:21:45;12.60;99.90
15815;DHT22;8008;50.024;8.172;2022-09-27T16:24:15;12.40;99.90
15815;DHT22;8008;50.024;8.172;2022-09-27T16:26:43;12.40;99.90
15815;DHT22;8008;50.024;8.172;2022-09-27T16:29:13;12.20;99.90
15815;DHT22;8008;50.024;8.172;2022-09-27T16:31:41;12.10;99.90
15815;DHT22;8008;50.024;8.172;2022-09-27T16:34:10;12.00;99.90
15815;DHT22;8008;50.024;8.172;2022-09-27T16:36:40;11.70;99.90
15815;DHT22;8008;50.024;8.172;2022-09-27T16:39:11;11.60;99.90
15815;DHT22;8008;50.024;8.172;2022-09-27T16:41:39;11.60;99.90
15815;DHT22;8008;50.024;8.172;2022-09-27T16:44:09;11.60;99.90
15815;DHT22;8008;50.024;8.172;2022-09-27T16:46:39;11.50;99.90
15815;DHT22;8008;50.024;8.172;2022-09-27T16:49:07;11.50;99.90
15815;DHT22;8008;50.024;8.172;2022-09-27T16:51:57;11.60;99.90
15815;DHT22;8008;50.024;8.172;2022-09-27T16:54:27;11.50;99.90
15815;DHT22;8008;50.024;8.172;2022-09-27T16:56:57;11.60;99.90
15815;DHT22;8008;50.024;8.172;2022-09-27T16:59:26;11.60;99.90
15815;DHT22;8008;50.024;8.172;2022-09-27T17:01:54;11.60;99.90
15815;DHT22;8008;50.024;8.172;2022-09-27T17:04:24;11.70;99.90
15815;DHT22;8008;50.024;8.172;2022-09-27T17:06:52;11.70;99.90
15815;DHT22;8008;50.024;8.172;2022-09-27T17:09:22;11.70;99.90
15815;DHT22;8008;50.024;8.172;2022-09-27T17:11:50;11.70;99.90
15815;DHT22;8008;50.024;8.172;2022-09-27T17:14:18;11.70;99.90
15815;DHT22;8008;50.024;8.172;2022-09-27T17:16:47;11.70;99.90
15815;DHT22;8008;50.024;8.172;2022-09-27T17:19:15;11.60;99.90
15815;DHT22;8008;50.024;8.172;2022-09-27T17:21:44;11.60;99.90
15815;DHT22;8008;50.024;8.172;2022-09-27T17:24:12;11.60;99.90
15815;DHT22;8008;50.024;8.172;2022-09-27T17:26:41;11.50;99.90
15815;DHT22;8008;50.024;8.172;2022-09-27T17:29:10;11.40;99.90
15815;DHT22;8008;50.024;8.172;2022-09-27T17:31:40;11.40;99.90
15815;DHT22;8008;50.024;8.172;2022-09-27T17:34:10;11.30;99.90
15815;DHT22;8008;50.024;8.172;2022-09-27T17:36:40;11.30;99.90
15815;DHT22;8008;50.024;8.172;2022-09-27T17:39:11;11.20;99.90
15815;DHT22;8008;50.024;8.172;2022-09-27T17:41:40;11.30;99.90
15815;DHT22;8008;50.024;8.172;2022-09-27T17:44:11;11.20;99.90
15815;DHT22;8008;50.024;8.172;2022-09-27T17:46:47;11.10;99.90
15815;DHT22;8008;50.024;8.172;2022-09-27T17:49:34;11.10;99.90
15815;DHT22;8008;50.024;8.172;2022-09-27T17:52:20;11.10;99.90
15815;DHT22;8008;50.024;8.172;2022-09-27T17:54:49;11.10;99.90
15815;DHT22;8008;50.024;8.172;2022-09-27T17:57:18;11.10;99.90
15815;DHT22;8008;50.024;8.172;2022-09-27T17:59:46;11.00;99.90
15815;DHT22;8008;50.024;8.172;2022-09-27T18:02:14;10.90;99.90
15815;DHT22;8008;50.024;8.172;2022-09-27T18:04:42;10.90;99.90
15815;DHT22;8008;50.024;8.172;2022-09-27T18:07:10;10.80;99.90
15815;DHT22;8008;50.024;8.172;2022-09-27T18:09:38;10.80;99.90
15815;DHT22;8008;50.024;8.172;2022-09-27T18:12:06;10.80;99.90
15815;DHT22;8008;50.024;8.172;2022-09-27T18:14:36;10.80;99.90
15815;DHT22;8008;50.024;8.172;2022-09-27T18:17:04;10.80;99.90
15815;DHT22;8008;50.024;8.172;2022-09-27T18:19:31;10.80;99.90
15815;DHT22;8008;50.024;8.172;2022-09-27T18:21:59;10.70;99.90
15815;DHT22;8008;50.024;8.172;2022-09-27T18:24:27;10.70;99.90
15815;DHT22;8008;50.024;8.172;2022-09-27T18:26:55;10.70;99.90
15815;DHT22;8008;50.024;8.172;2022-09-27T18:29:25;10.70;99.90
15815;DHT22;8008;50.024;8.172;2022-09-27T18:31:55;10.70;99.90
15815;DHT22;8008;50.024;8.172;2022-09-27T18:34:23;10.70;99.90
15815;DHT22;8008;50.024;8.172;2022-09-27T18:36:51;10.60;99.90
15815;DHT22;8008;50.024;8.172;2022-09-27T18:39:19;10.60;99.90
15815;DHT22;8008;50.024;8.172;2022-09-27T18:41:48;10.50;99.90
15815;DHT22;8008;50.024;8.172;2022-09-27T18:44:16;10.50;99.90
15815;DHT22;8008;50.024;8.172;2022-09-27T18:46:45;10.40;99.90
15815;DHT22;8008;50.024;8.172;2022-09-27T18:49:14;10.40;99.90
15815;DHT22;8008;50.024;8.172;2022-09-27T18:51:42;10.40;99.90
15815;DHT22;8008;50.024;8.172;2022-09-27T18:54:14;10.40;99.90
15815;DHT22;8008;50.024;8.172;2022-09-27T18:56:44;10.40;99.90
15815;DHT22;8008;50.024;8.172;2022-09-27T18:59:13;10.40;99.90
15815;DHT22;8008;50.024;8.172;2022-09-27T19:01:42;10.40;99.90
15815;DHT22;8008;50.024;8.172;2022-09-27T19:04:15;10.40;99.90
15815;DHT22;8008;50.024;8.172;2022-09-27T19:06:49;10.40;99.90
15815;DHT22;8008;50.024;8.172;2022-09-27T19:09:17;10.30;99.90
15815;DHT22;8008;50.024;8.172;2022-09-27T19:11:45;10.30;99.90
15815;DHT22;8008;50.024;8.172;2022-09-27T19:14:15;10.30;99.90
15815;DHT22;8008;50.024;8.172;2022-09-27T19:16:43;10.20;99.90
15815;DHT22;8008;50.024;8.172;2022-09-27T19:19:14;10.20;99.90
15815;DHT22;8008;50.024;8.172;2022-09-27T19:21:44;10.20;99.90
15815;DHT22;8008;50.024;8.172;2022-09-27T19:24:13;10.10;99.90
15815;DHT22;8008;50.024;8.172;2022-09-27T19:26:41;10.20;99.90
15815;DHT22;8008;50.024;8.172;2022-09-27T19:29:10;10.20;99.90
15815;DHT22;8008;50.024;8.172;2022-09-27T19:31:39;10.20;99.90
15815;DHT22;8008;50.024;8.172;2022-09-27T19:34:07;10.20;99.90
15815;DHT22;8008;50.024;8.172;2022-09-27T19:36:36;10.20;99.90
15815;DHT22;8008;50.024;8.172;2022-09-27T19:39:05;10.10;99.90
15815;DHT22;8008;50.024;8.172;2022-09-27T19:41:33;10.10;99.90